EJU68EA LPFR-EGHI
Flight info
| Callsign | EJU68EA |
|---|---|
| Flight time | 2h 18m |
| Altitude | 36000 |
| Route | DCT PINEK DCT KORUL DCT KOLEK DCT FEJAC DCT JSY DCT REVTU UY110 ORIST Y110 THRED THRED1S |
| Aircraft | A320/M-SDE3FGHIRWY/LB1 |
Departure
| Time | 2026-05-05 15:45 |
|---|---|
| Airport | Faro - Gago Coutinho International Airport (LPFR) |
Arrival
| Time | 2026-05-05 18:04 |
|---|---|
| Airport | Southampton Airport (EGHI) |
| Time | Latitude | Longitude | Altitude | Speed | Heading |
|---|---|---|---|---|---|
| 2026-05-05 15:16 | 37.01932 | -7.96974 | 21 ft | 0 kts | 10° |
| 2026-05-05 15:31 | 37.01913 | -7.96978 | 20 ft | 4 kts | 10° |
| 2026-05-05 15:31 | 37.01886 | -7.96984 | 21 ft | 4 kts | 10° |
| 2026-05-05 15:32 | 37.01859 | -7.96990 | 23 ft | 4 kts | 10° |
| 2026-05-05 15:32 | 37.01837 | -7.96995 | 21 ft | 3 kts | 10° |
| 2026-05-05 15:32 | 37.01815 | -7.97007 | 22 ft | 4 kts | 55° |
| 2026-05-05 15:32 | 37.01808 | -7.97034 | 20 ft | 2 kts | 99° |
| 2026-05-05 15:33 | 37.01809 | -7.97037 | 20 ft | 0 kts | 100° |
| 2026-05-05 15:35 | 37.01807 | -7.97023 | 20 ft | 4 kts | 100° |
| 2026-05-05 15:35 | 37.01798 | -7.96962 | 20 ft | 10 kts | 100° |
| 2026-05-05 15:35 | 37.01748 | -7.96898 | 20 ft | 14 kts | 183° |
| 2026-05-05 15:35 | 37.01667 | -7.96854 | 20 ft | 16 kts | 109° |
| 2026-05-05 15:36 | 37.01642 | -7.96693 | 21 ft | 21 kts | 100° |
| 2026-05-05 15:36 | 37.01612 | -7.96495 | 22 ft | 23 kts | 101° |
| 2026-05-05 15:36 | 37.01587 | -7.96307 | 20 ft | 21 kts | 100° |
| 2026-05-05 15:36 | 37.01562 | -7.96137 | 20 ft | 19 kts | 100° |
| 2026-05-05 15:37 | 37.01542 | -7.95983 | 20 ft | 17 kts | 99° |
| 2026-05-05 15:37 | 37.01510 | -7.95854 | 20 ft | 15 kts | 137° |
| 2026-05-05 15:37 | 37.01439 | -7.95842 | 20 ft | 0 kts | 189° |
| 2026-05-05 15:44 | 37.01429 | -7.95844 | 21 ft | 6 kts | 189° |
| 2026-05-05 15:44 | 37.01355 | -7.95863 | 21 ft | 11 kts | 212° |
| 2026-05-05 15:44 | 37.01357 | -7.95959 | 20 ft | 14 kts | 280° |
| 2026-05-05 15:45 | 37.01403 | -7.96284 | 22 ft | 72 kts | 280° |
| 2026-05-05 15:45 | 37.01527 | -7.97160 | 20 ft | 130 kts | 280° |
| 2026-05-05 15:45 | 37.01726 | -7.98387 | 331 ft | 148 kts | 280° |
| 2026-05-05 15:45 | 37.01861 | -7.99224 | 755 ft | 148 kts | 278° |
| 2026-05-05 15:46 | 37.02086 | -8.00950 | 1487 ft | 158 kts | 284° |
| 2026-05-05 15:46 | 37.02286 | -8.02393 | 1684 ft | 184 kts | 284° |
| 2026-05-05 15:46 | 37.02574 | -8.04075 | 1901 ft | 212 kts | 285° |
| 2026-05-05 15:46 | 37.02891 | -8.05886 | 2664 ft | 213 kts | 284° |
| 2026-05-05 15:47 | 37.03148 | -8.07706 | 3453 ft | 213 kts | 283° |
| 2026-05-05 15:47 | 37.03314 | -8.08946 | 3948 ft | 215 kts | 283° |
| 2026-05-05 15:47 | 37.03760 | -8.11366 | 4857 ft | 216 kts | 302° |
| 2026-05-05 15:47 | 37.04778 | -8.12701 | 5455 ft | 218 kts | 332° |
| 2026-05-05 15:48 | 37.06309 | -8.13151 | 5756 ft | 240 kts | 356° |
| 2026-05-05 15:48 | 37.08043 | -8.13262 | 6247 ft | 255 kts | 356° |
| 2026-05-05 15:48 | 37.09839 | -8.13378 | 6975 ft | 260 kts | 356° |
| 2026-05-05 15:48 | 37.11692 | -8.13505 | 7712 ft | 266 kts | 355° |
| 2026-05-05 15:49 | 37.13527 | -8.13635 | 8476 ft | 270 kts | 355° |
| 2026-05-05 15:49 | 37.15415 | -8.13770 | 9256 ft | 274 kts | 355° |
| 2026-05-05 15:49 | 37.17335 | -8.13909 | 9988 ft | 279 kts | 354° |
| 2026-05-05 15:49 | 37.19349 | -8.14058 | 10382 ft | 297 kts | 355° |
| 2026-05-05 15:50 | 37.21462 | -8.14217 | 10574 ft | 320 kts | 354° |
| 2026-05-05 15:50 | 37.23750 | -8.14385 | 10876 ft | 336 kts | 355° |
| 2026-05-05 15:50 | 37.26114 | -8.14553 | 11425 ft | 343 kts | 355° |
| 2026-05-05 15:50 | 37.28544 | -8.14723 | 12109 ft | 347 kts | 354° |
| 2026-05-05 15:51 | 37.30934 | -8.14892 | 12765 ft | 350 kts | 354° |
| 2026-05-05 15:51 | 37.33415 | -8.15068 | 13419 ft | 355 kts | 354° |
| 2026-05-05 15:51 | 37.35856 | -8.15241 | 14056 ft | 358 kts | 354° |
| 2026-05-05 15:51 | 37.38356 | -8.15417 | 14623 ft | 362 kts | 354° |
| 2026-05-05 15:52 | 37.40887 | -8.15595 | 15174 ft | 366 kts | 354° |
| 2026-05-05 15:52 | 37.43439 | -8.15776 | 15761 ft | 369 kts | 354° |
| 2026-05-05 15:52 | 37.46009 | -8.15963 | 16351 ft | 372 kts | 354° |
| 2026-05-05 15:52 | 37.48639 | -8.16153 | 16911 ft | 376 kts | 354° |
| 2026-05-05 15:53 | 37.51261 | -8.16341 | 17469 ft | 379 kts | 354° |
| 2026-05-05 15:53 | 37.53908 | -8.16530 | 18019 ft | 383 kts | 354° |
| 2026-05-05 15:53 | 37.56580 | -8.16724 | 18534 ft | 386 kts | 354° |
| 2026-05-05 15:53 | 37.59243 | -8.16921 | 19016 ft | 390 kts | 354° |
| 2026-05-05 15:54 | 37.61960 | -8.17121 | 19499 ft | 393 kts | 354° |
| 2026-05-05 15:54 | 37.64734 | -8.17321 | 19991 ft | 396 kts | 353° |
| 2026-05-05 15:54 | 37.67459 | -8.17514 | 20489 ft | 399 kts | 353° |
| 2026-05-05 15:54 | 37.70239 | -8.17711 | 20987 ft | 401 kts | 353° |
| 2026-05-05 15:55 | 37.73040 | -8.17911 | 21461 ft | 404 kts | 353° |
| 2026-05-05 15:55 | 37.75858 | -8.18113 | 21922 ft | 407 kts | 353° |
| 2026-05-05 15:55 | 37.78695 | -8.18320 | 22373 ft | 410 kts | 353° |
| 2026-05-05 15:55 | 37.81551 | -8.18528 | 22814 ft | 412 kts | 353° |
| 2026-05-05 15:56 | 37.84426 | -8.18736 | 23245 ft | 415 kts | 353° |
| 2026-05-05 15:56 | 37.87321 | -8.18945 | 23654 ft | 418 kts | 353° |
| 2026-05-05 15:56 | 37.90230 | -8.19155 | 23943 ft | 420 kts | 353° |
| 2026-05-05 15:56 | 37.93147 | -8.19364 | 24027 ft | 419 kts | 353° |
| 2026-05-05 15:57 | 37.96055 | -8.19572 | 24041 ft | 418 kts | 353° |
| 2026-05-05 15:57 | 37.98956 | -8.19782 | 24049 ft | 417 kts | 352° |
| 2026-05-05 15:57 | 38.01856 | -8.19992 | 24049 ft | 417 kts | 353° |
| 2026-05-05 15:57 | 38.04753 | -8.20201 | 24049 ft | 417 kts | 353° |
| 2026-05-05 15:58 | 38.07653 | -8.20411 | 24049 ft | 417 kts | 352° |
| 2026-05-05 15:58 | 38.10552 | -8.20623 | 24049 ft | 417 kts | 352° |
| 2026-05-05 15:58 | 38.13452 | -8.20835 | 24049 ft | 417 kts | 352° |
| 2026-05-05 15:58 | 38.16351 | -8.21050 | 24048 ft | 417 kts | 352° |
| 2026-05-05 15:59 | 38.19251 | -8.21267 | 24048 ft | 417 kts | 352° |
| 2026-05-05 15:59 | 38.22150 | -8.21483 | 24046 ft | 417 kts | 352° |
| 2026-05-05 15:59 | 38.25052 | -8.21695 | 24124 ft | 419 kts | 352° |
| 2026-05-05 15:59 | 38.27972 | -8.21909 | 24489 ft | 421 kts | 352° |
| 2026-05-05 16:00 | 38.30902 | -8.22128 | 24836 ft | 423 kts | 352° |
| 2026-05-05 16:00 | 38.33845 | -8.22393 | 25174 ft | 425 kts | 351° |
| 2026-05-05 16:00 | 38.36799 | -8.22697 | 25502 ft | 427 kts | 350° |
| 2026-05-05 16:00 | 38.39768 | -8.23019 | 25843 ft | 428 kts | 349° |
| 2026-05-05 16:01 | 38.42742 | -8.23343 | 26166 ft | 430 kts | 349° |
| 2026-05-05 16:01 | 38.45735 | -8.23661 | 26474 ft | 433 kts | 349° |
| 2026-05-05 16:01 | 38.48743 | -8.23974 | 26779 ft | 435 kts | 349° |
| 2026-05-05 16:01 | 38.51762 | -8.24284 | 27078 ft | 437 kts | 349° |
| 2026-05-05 16:02 | 38.54805 | -8.24593 | 27373 ft | 439 kts | 349° |
| 2026-05-05 16:02 | 38.57854 | -8.24898 | 27668 ft | 441 kts | 349° |
| 2026-05-05 16:02 | 38.60919 | -8.25206 | 27977 ft | 442 kts | 349° |
| 2026-05-05 16:02 | 38.63989 | -8.25518 | 28307 ft | 443 kts | 349° |
| 2026-05-05 16:03 | 38.67066 | -8.25832 | 28585 ft | 444 kts | 349° |
| 2026-05-05 16:03 | 38.70152 | -8.26148 | 28843 ft | 446 kts | 349° |
| 2026-05-05 16:03 | 38.73247 | -8.26463 | 29089 ft | 447 kts | 349° |
| 2026-05-05 16:03 | 38.76358 | -8.26776 | 29330 ft | 449 kts | 349° |
| 2026-05-05 16:04 | 38.79480 | -8.27092 | 29560 ft | 451 kts | 348° |
| 2026-05-05 16:04 | 38.82612 | -8.27411 | 29773 ft | 452 kts | 348° |
| 2026-05-05 16:04 | 38.85753 | -8.27735 | 30045 ft | 453 kts | 349° |
| 2026-05-05 16:04 | 38.88892 | -8.28057 | 30315 ft | 452 kts | 348° |
| 2026-05-05 16:05 | 38.92023 | -8.28378 | 30571 ft | 452 kts | 348° |
| 2026-05-05 16:05 | 38.95158 | -8.28698 | 30828 ft | 451 kts | 348° |
| 2026-05-05 16:05 | 38.98281 | -8.29018 | 31088 ft | 450 kts | 348° |
| 2026-05-05 16:05 | 39.01403 | -8.29339 | 31345 ft | 450 kts | 348° |
| 2026-05-05 16:06 | 39.04521 | -8.29663 | 31598 ft | 449 kts | 348° |
| 2026-05-05 16:06 | 39.07635 | -8.29984 | 31888 ft | 449 kts | 348° |
| 2026-05-05 16:06 | 39.10703 | -8.30299 | 32152 ft | 448 kts | 348° |
| 2026-05-05 16:06 | 39.13808 | -8.30618 | 32417 ft | 447 kts | 348° |
| 2026-05-05 16:07 | 39.16906 | -8.30937 | 32672 ft | 447 kts | 348° |
| 2026-05-05 16:07 | 39.20001 | -8.31255 | 32931 ft | 446 kts | 348° |
| 2026-05-05 16:07 | 39.23093 | -8.31574 | 33186 ft | 445 kts | 348° |
| 2026-05-05 16:07 | 39.26184 | -8.31894 | 33444 ft | 445 kts | 348° |
| 2026-05-05 16:08 | 39.29266 | -8.32213 | 33728 ft | 444 kts | 348° |
| 2026-05-05 16:08 | 39.32348 | -8.32532 | 33974 ft | 444 kts | 349° |
| 2026-05-05 16:08 | 39.34427 | -8.32748 | 34129 ft | 444 kts | 349° |
| 2026-05-05 16:08 | 39.37465 | -8.33065 | 34337 ft | 444 kts | 349° |
| 2026-05-05 16:09 | 39.40544 | -8.33385 | 34545 ft | 444 kts | 349° |
| 2026-05-05 16:09 | 39.43616 | -8.33707 | 34751 ft | 443 kts | 349° |
| 2026-05-05 16:09 | 39.46695 | -8.34029 | 34951 ft | 443 kts | 349° |
| 2026-05-05 16:09 | 39.49766 | -8.34349 | 35146 ft | 443 kts | 349° |
| 2026-05-05 16:10 | 39.52840 | -8.34670 | 35361 ft | 443 kts | 349° |
| 2026-05-05 16:10 | 39.55910 | -8.34989 | 35552 ft | 442 kts | 349° |
| 2026-05-05 16:10 | 39.58977 | -8.35309 | 35741 ft | 442 kts | 349° |
| 2026-05-05 16:10 | 39.62042 | -8.35630 | 35925 ft | 442 kts | 349° |
| 2026-05-05 16:11 | 39.65107 | -8.35953 | 36040 ft | 442 kts | 349° |
| 2026-05-05 16:12 | 39.77368 | -8.37238 | 36055 ft | 441 kts | 349° |
| 2026-05-05 16:13 | 39.92645 | -8.38856 | 36062 ft | 440 kts | 349° |
| 2026-05-05 16:13 | 39.98752 | -8.39499 | 36089 ft | 440 kts | 349° |
| 2026-05-05 16:14 | 40.10958 | -8.40789 | 36084 ft | 440 kts | 349° |
| 2026-05-05 16:15 | 40.23192 | -8.42084 | 36087 ft | 440 kts | 349° |
| 2026-05-05 16:16 | 40.35350 | -8.43390 | 36082 ft | 440 kts | 349° |
| 2026-05-05 16:17 | 40.44493 | -8.44369 | 36079 ft | 440 kts | 349° |
| 2026-05-05 16:18 | 40.53640 | -8.45350 | 36077 ft | 440 kts | 349° |
| 2026-05-05 16:19 | 40.62783 | -8.46333 | 36101 ft | 439 kts | 350° |
| 2026-05-05 16:19 | 40.71887 | -8.47321 | 36098 ft | 437 kts | 350° |
| 2026-05-05 16:20 | 40.83984 | -8.48629 | 36115 ft | 435 kts | 350° |
| 2026-05-05 16:22 | 40.99049 | -8.50261 | 36096 ft | 434 kts | 350° |
| 2026-05-05 16:23 | 41.11078 | -8.51584 | 36112 ft | 433 kts | 350° |
| 2026-05-05 16:23 | 41.20074 | -8.52570 | 36105 ft | 432 kts | 350° |
| 2026-05-05 16:24 | 41.26064 | -8.53218 | 36123 ft | 431 kts | 350° |
| 2026-05-05 16:25 | 41.35022 | -8.54204 | 36109 ft | 430 kts | 350° |
| 2026-05-05 16:25 | 41.43964 | -8.55197 | 36098 ft | 430 kts | 350° |
| 2026-05-05 16:26 | 41.55864 | -8.56513 | 36094 ft | 428 kts | 350° |
| 2026-05-05 16:27 | 41.61806 | -8.57172 | 36090 ft | 428 kts | 350° |
| 2026-05-05 16:27 | 41.67738 | -8.57829 | 36111 ft | 428 kts | 350° |
| 2026-05-05 16:28 | 41.73666 | -8.58496 | 36097 ft | 427 kts | 350° |
| 2026-05-05 16:28 | 41.79585 | -8.59168 | 36096 ft | 426 kts | 350° |
| 2026-05-05 16:29 | 41.85548 | -8.59041 | 36090 ft | 436 kts | 5° |
| 2026-05-05 16:29 | 41.91322 | -8.56454 | 36102 ft | 444 kts | 16° |
| 2026-05-05 16:30 | 41.97088 | -8.53359 | 36096 ft | 443 kts | 16° |
| 2026-05-05 16:30 | 42.02783 | -8.50321 | 36091 ft | 443 kts | 16° |
| 2026-05-05 16:31 | 42.08548 | -8.47226 | 36082 ft | 443 kts | 16° |
| 2026-05-05 16:31 | 42.14231 | -8.44160 | 36106 ft | 443 kts | 16° |
| 2026-05-05 16:32 | 42.19983 | -8.41064 | 36095 ft | 442 kts | 16° |
| 2026-05-05 16:32 | 42.25689 | -8.37982 | 36088 ft | 441 kts | 16° |
| 2026-05-05 16:33 | 42.31393 | -8.34902 | 36097 ft | 441 kts | 17° |
| 2026-05-05 16:33 | 42.37077 | -8.31817 | 36098 ft | 439 kts | 16° |
| 2026-05-05 16:34 | 42.42745 | -8.28740 | 36085 ft | 439 kts | 16° |
| 2026-05-05 16:34 | 42.48408 | -8.25653 | 36082 ft | 439 kts | 16° |
| 2026-05-05 16:35 | 42.54068 | -8.22560 | 36084 ft | 439 kts | 16° |
| 2026-05-05 16:35 | 42.59728 | -8.19467 | 36078 ft | 438 kts | 16° |
| 2026-05-05 16:36 | 42.65388 | -8.16369 | 36073 ft | 438 kts | 16° |
| 2026-05-05 16:36 | 42.71047 | -8.13265 | 36071 ft | 438 kts | 16° |
| 2026-05-05 16:37 | 42.76700 | -8.10150 | 36089 ft | 439 kts | 17° |
| 2026-05-05 16:37 | 42.82320 | -8.07051 | 36086 ft | 439 kts | 17° |
| 2026-05-05 16:38 | 42.87978 | -8.03938 | 36077 ft | 439 kts | 17° |
| 2026-05-05 16:38 | 42.93641 | -8.00815 | 36075 ft | 439 kts | 17° |
| 2026-05-05 16:39 | 42.99296 | -7.97675 | 36085 ft | 438 kts | 17° |
| 2026-05-05 16:39 | 43.04942 | -7.94532 | 36085 ft | 438 kts | 17° |
| 2026-05-05 16:40 | 43.10593 | -7.91391 | 36089 ft | 438 kts | 17° |
| 2026-05-05 16:40 | 43.16239 | -7.88237 | 36084 ft | 438 kts | 18° |
| 2026-05-05 16:41 | 43.21877 | -7.85084 | 36083 ft | 437 kts | 17° |
| 2026-05-05 16:41 | 43.27510 | -7.81931 | 36081 ft | 437 kts | 17° |
| 2026-05-05 16:42 | 43.33136 | -7.78780 | 36071 ft | 437 kts | 17° |
| 2026-05-05 16:42 | 43.38762 | -7.75627 | 36090 ft | 437 kts | 18° |
| 2026-05-05 16:43 | 43.44381 | -7.72451 | 36082 ft | 436 kts | 18° |
| 2026-05-05 16:43 | 43.49997 | -7.69274 | 36083 ft | 436 kts | 18° |
| 2026-05-05 16:44 | 43.55611 | -7.66103 | 36080 ft | 436 kts | 18° |
| 2026-05-05 16:44 | 43.61222 | -7.62930 | 36091 ft | 436 kts | 18° |
| 2026-05-05 16:45 | 43.66833 | -7.59744 | 36103 ft | 436 kts | 18° |
| 2026-05-05 16:45 | 43.72415 | -7.56570 | 36071 ft | 437 kts | 18° |
| 2026-05-05 16:46 | 43.78043 | -7.53358 | 36061 ft | 438 kts | 19° |
| 2026-05-05 16:46 | 43.83679 | -7.50131 | 36062 ft | 439 kts | 19° |
| 2026-05-05 16:47 | 43.89323 | -7.46905 | 36065 ft | 439 kts | 19° |
| 2026-05-05 16:47 | 43.94969 | -7.43673 | 36057 ft | 439 kts | 19° |
| 2026-05-05 16:48 | 44.00613 | -7.40424 | 36069 ft | 439 kts | 19° |
| 2026-05-05 16:48 | 44.06254 | -7.37169 | 36069 ft | 439 kts | 19° |
| 2026-05-05 16:49 | 44.11892 | -7.33914 | 36069 ft | 439 kts | 19° |
| 2026-05-05 16:49 | 44.17530 | -7.30655 | 36068 ft | 439 kts | 19° |
| 2026-05-05 16:50 | 44.23165 | -7.27393 | 36073 ft | 438 kts | 19° |
| 2026-05-05 16:50 | 44.28793 | -7.24121 | 36068 ft | 438 kts | 20° |
| 2026-05-05 16:51 | 44.34428 | -7.20843 | 36074 ft | 439 kts | 20° |
| 2026-05-05 16:51 | 44.39150 | -7.18091 | 36057 ft | 439 kts | 20° |
| 2026-05-05 16:52 | 44.44754 | -7.14814 | 36056 ft | 440 kts | 20° |
| 2026-05-05 16:52 | 44.50401 | -7.11514 | 36055 ft | 440 kts | 20° |
| 2026-05-05 16:53 | 44.56048 | -7.08211 | 36051 ft | 440 kts | 20° |
| 2026-05-05 16:53 | 44.61692 | -7.04885 | 36051 ft | 440 kts | 20° |
| 2026-05-05 16:54 | 44.67333 | -7.01563 | 36054 ft | 440 kts | 20° |
| 2026-05-05 16:54 | 44.72977 | -6.98233 | 36053 ft | 440 kts | 20° |
| 2026-05-05 16:55 | 44.78618 | -6.94892 | 36058 ft | 440 kts | 20° |
| 2026-05-05 16:55 | 44.84217 | -6.91414 | 36057 ft | 441 kts | 27° |
| 2026-05-05 16:56 | 44.89522 | -6.87052 | 36054 ft | 441 kts | 28° |
| 2026-05-05 16:56 | 44.94830 | -6.82686 | 36057 ft | 442 kts | 28° |
| 2026-05-05 16:57 | 45.00144 | -6.78319 | 36054 ft | 442 kts | 28° |
| 2026-05-05 16:57 | 45.05458 | -6.73940 | 36049 ft | 442 kts | 28° |
| 2026-05-05 16:58 | 45.10765 | -6.69543 | 36048 ft | 442 kts | 28° |
| 2026-05-05 16:58 | 45.16070 | -6.65140 | 36044 ft | 442 kts | 28° |
| 2026-05-05 16:59 | 45.21371 | -6.60735 | 36046 ft | 442 kts | 28° |
| 2026-05-05 16:59 | 45.26670 | -6.56321 | 36058 ft | 442 kts | 29° |
| 2026-05-05 17:00 | 45.31972 | -6.51898 | 36041 ft | 442 kts | 29° |
| 2026-05-05 17:00 | 45.37280 | -6.47457 | 36036 ft | 443 kts | 29° |
| 2026-05-05 17:01 | 45.42584 | -6.43007 | 36042 ft | 443 kts | 29° |
| 2026-05-05 17:01 | 45.47891 | -6.38545 | 36038 ft | 443 kts | 29° |
| 2026-05-05 17:02 | 45.53192 | -6.34085 | 36036 ft | 443 kts | 29° |
| 2026-05-05 17:02 | 45.58490 | -6.29607 | 36036 ft | 443 kts | 29° |
| 2026-05-05 17:03 | 45.63783 | -6.25129 | 36043 ft | 442 kts | 30° |
| 2026-05-05 17:03 | 45.69071 | -6.20640 | 36039 ft | 442 kts | 30° |
| 2026-05-05 17:04 | 45.74360 | -6.16150 | 36033 ft | 442 kts | 29° |
| 2026-05-05 17:04 | 45.79645 | -6.11655 | 36032 ft | 442 kts | 30° |
| 2026-05-05 17:05 | 45.84919 | -6.07148 | 36026 ft | 441 kts | 30° |
| 2026-05-05 17:05 | 45.90194 | -6.02647 | 36035 ft | 441 kts | 30° |
| 2026-05-05 17:06 | 45.95454 | -5.98142 | 36029 ft | 440 kts | 30° |
| 2026-05-05 17:06 | 46.00714 | -5.93619 | 36036 ft | 440 kts | 30° |
| 2026-05-05 17:07 | 46.05962 | -5.89086 | 36025 ft | 440 kts | 30° |
| 2026-05-05 17:07 | 46.11206 | -5.84546 | 36021 ft | 440 kts | 30° |
| 2026-05-05 17:08 | 46.16450 | -5.80020 | 36012 ft | 439 kts | 30° |
| 2026-05-05 17:08 | 46.21690 | -5.75479 | 36016 ft | 439 kts | 30° |
| 2026-05-05 17:09 | 46.26923 | -5.70926 | 36013 ft | 439 kts | 30° |
| 2026-05-05 17:09 | 46.32151 | -5.66370 | 36007 ft | 438 kts | 30° |
| 2026-05-05 17:10 | 46.37372 | -5.61813 | 36010 ft | 438 kts | 30° |
| 2026-05-05 17:10 | 46.42598 | -5.57243 | 36001 ft | 439 kts | 30° |
| 2026-05-05 17:11 | 46.47830 | -5.52664 | 36000 ft | 439 kts | 30° |
| 2026-05-05 17:11 | 46.53060 | -5.48074 | 35989 ft | 439 kts | 30° |
| 2026-05-05 17:12 | 46.58277 | -5.43476 | 35992 ft | 439 kts | 31° |
| 2026-05-05 17:12 | 46.63228 | -5.38411 | 35998 ft | 439 kts | 39° |
| 2026-05-05 17:13 | 46.67870 | -5.32622 | 35994 ft | 439 kts | 39° |
| 2026-05-05 17:13 | 46.72549 | -5.26810 | 35999 ft | 440 kts | 40° |
| 2026-05-05 17:14 | 46.77180 | -5.21045 | 35980 ft | 441 kts | 40° |
| 2026-05-05 17:14 | 46.81838 | -5.15214 | 35971 ft | 442 kts | 40° |
| 2026-05-05 17:15 | 46.86506 | -5.09357 | 35964 ft | 442 kts | 40° |
| 2026-05-05 17:15 | 46.91165 | -5.03491 | 35972 ft | 442 kts | 40° |
| 2026-05-05 17:16 | 46.95825 | -4.97621 | 35984 ft | 442 kts | 40° |
| 2026-05-05 17:16 | 47.00481 | -4.91748 | 35982 ft | 442 kts | 41° |
| 2026-05-05 17:17 | 47.05146 | -4.85845 | 35970 ft | 443 kts | 40° |
| 2026-05-05 17:17 | 47.09815 | -4.79926 | 35964 ft | 443 kts | 40° |
| 2026-05-05 17:18 | 47.14482 | -4.74004 | 35971 ft | 443 kts | 40° |
| 2026-05-05 17:18 | 47.18352 | -4.69070 | 35974 ft | 443 kts | 41° |
| 2026-05-05 17:19 | 47.23755 | -4.62153 | 35973 ft | 443 kts | 41° |
| 2026-05-05 17:19 | 47.28407 | -4.56199 | 35973 ft | 443 kts | 41° |
| 2026-05-05 17:20 | 47.33050 | -4.50245 | 35973 ft | 442 kts | 41° |
| 2026-05-05 17:20 | 47.37683 | -4.44281 | 35981 ft | 442 kts | 41° |
| 2026-05-05 17:21 | 47.42312 | -4.38308 | 35976 ft | 442 kts | 41° |
| 2026-05-05 17:22 | 47.49253 | -4.29347 | 35979 ft | 441 kts | 41° |
| 2026-05-05 17:22 | 47.53857 | -4.23361 | 35976 ft | 440 kts | 41° |
| 2026-05-05 17:23 | 47.58455 | -4.17371 | 35976 ft | 440 kts | 41° |
| 2026-05-05 17:23 | 47.63060 | -4.11361 | 35966 ft | 441 kts | 41° |
| 2026-05-05 17:24 | 47.67675 | -4.05335 | 35965 ft | 442 kts | 41° |
| 2026-05-05 17:24 | 47.72291 | -3.99286 | 35963 ft | 443 kts | 41° |
| 2026-05-05 17:25 | 47.76902 | -3.93224 | 35972 ft | 443 kts | 41° |
| 2026-05-05 17:25 | 47.81509 | -3.87147 | 35979 ft | 443 kts | 41° |
| 2026-05-05 17:26 | 47.86110 | -3.81066 | 35980 ft | 442 kts | 41° |
| 2026-05-05 17:26 | 47.90688 | -3.75016 | 35972 ft | 443 kts | 42° |
| 2026-05-05 17:27 | 47.95305 | -3.68902 | 35970 ft | 444 kts | 42° |
| 2026-05-05 17:27 | 47.99913 | -3.62759 | 35972 ft | 445 kts | 42° |
| 2026-05-05 17:28 | 48.04524 | -3.56598 | 35973 ft | 445 kts | 42° |
| 2026-05-05 17:28 | 48.09134 | -3.50427 | 35980 ft | 445 kts | 42° |
| 2026-05-05 17:29 | 48.13751 | -3.44255 | 35981 ft | 445 kts | 42° |
| 2026-05-05 17:29 | 48.18359 | -3.38068 | 35975 ft | 445 kts | 43° |
| 2026-05-05 17:30 | 48.22971 | -3.31852 | 35973 ft | 446 kts | 43° |
| 2026-05-05 17:30 | 48.27582 | -3.25615 | 35972 ft | 446 kts | 43° |
| 2026-05-05 17:31 | 48.32192 | -3.19364 | 35974 ft | 447 kts | 43° |
| 2026-05-05 17:31 | 48.36799 | -3.13097 | 35975 ft | 447 kts | 43° |
| 2026-05-05 17:32 | 48.41416 | -3.06827 | 35961 ft | 447 kts | 42° |
| 2026-05-05 17:32 | 48.46029 | -3.00550 | 35977 ft | 447 kts | 43° |
| 2026-05-05 17:33 | 48.50634 | -2.94252 | 35966 ft | 448 kts | 43° |
| 2026-05-05 17:33 | 48.55245 | -2.87930 | 35943 ft | 448 kts | 43° |
| 2026-05-05 17:34 | 48.59857 | -2.81593 | 35941 ft | 448 kts | 44° |
| 2026-05-05 17:34 | 48.64466 | -2.75233 | 35952 ft | 449 kts | 43° |
| 2026-05-05 17:35 | 48.69072 | -2.68862 | 35957 ft | 449 kts | 44° |
| 2026-05-05 17:35 | 48.73681 | -2.62476 | 35960 ft | 449 kts | 43° |
| 2026-05-05 17:36 | 48.78340 | -2.56158 | 35953 ft | 451 kts | 39° |
| 2026-05-05 17:36 | 48.82475 | -2.51348 | 35948 ft | 451 kts | 39° |
| 2026-05-05 17:37 | 48.87459 | -2.45549 | 35947 ft | 451 kts | 38° |
| 2026-05-05 17:37 | 48.92436 | -2.39723 | 35941 ft | 452 kts | 39° |
| 2026-05-05 17:38 | 48.97406 | -2.33867 | 35944 ft | 452 kts | 39° |
| 2026-05-05 17:38 | 49.02381 | -2.28003 | 35945 ft | 452 kts | 39° |
| 2026-05-05 17:39 | 49.07355 | -2.22136 | 35942 ft | 452 kts | 38° |
| 2026-05-05 17:39 | 49.12320 | -2.16259 | 35872 ft | 452 kts | 40° |
| 2026-05-05 17:39 | 49.14795 | -2.13320 | 35574 ft | 450 kts | 40° |
| 2026-05-05 17:40 | 49.17270 | -2.10377 | 34701 ft | 453 kts | 40° |
| 2026-05-05 17:40 | 49.19764 | -2.07407 | 33788 ft | 456 kts | 40° |
| 2026-05-05 17:40 | 49.22319 | -2.04519 | 32784 ft | 458 kts | 34° |
| 2026-05-05 17:40 | 49.25082 | -2.02087 | 31797 ft | 459 kts | 31° |
| 2026-05-05 17:41 | 49.27880 | -1.99725 | 30793 ft | 459 kts | 30° |
| 2026-05-05 17:41 | 49.30675 | -1.97365 | 30035 ft | 456 kts | 31° |
| 2026-05-05 17:41 | 49.33426 | -1.95039 | 29372 ft | 448 kts | 30° |
| 2026-05-05 17:41 | 49.36135 | -1.92743 | 28741 ft | 441 kts | 30° |
| 2026-05-05 17:42 | 49.38801 | -1.90473 | 28116 ft | 435 kts | 30° |
| 2026-05-05 17:42 | 49.41426 | -1.88229 | 27501 ft | 429 kts | 30° |
| 2026-05-05 17:42 | 49.44015 | -1.86014 | 26902 ft | 424 kts | 31° |
| 2026-05-05 17:42 | 49.46579 | -1.83822 | 26303 ft | 419 kts | 30° |
| 2026-05-05 17:43 | 49.49110 | -1.81660 | 25718 ft | 414 kts | 30° |
| 2026-05-05 17:43 | 49.51619 | -1.79516 | 25132 ft | 410 kts | 29° |
| 2026-05-05 17:43 | 49.54100 | -1.77391 | 24565 ft | 406 kts | 30° |
| 2026-05-05 17:43 | 49.56599 | -1.75407 | 24011 ft | 403 kts | 23° |
| 2026-05-05 17:44 | 49.59261 | -1.74131 | 23461 ft | 400 kts | 12° |
| 2026-05-05 17:44 | 49.62012 | -1.73677 | 22896 ft | 396 kts | 1° |
| 2026-05-05 17:44 | 49.64728 | -1.74031 | 22404 ft | 393 kts | 351° |
| 2026-05-05 17:44 | 49.67408 | -1.74832 | 21935 ft | 388 kts | 351° |
| 2026-05-05 17:45 | 49.70041 | -1.75611 | 21461 ft | 384 kts | 351° |
| 2026-05-05 17:45 | 49.72647 | -1.76380 | 21007 ft | 379 kts | 351° |
| 2026-05-05 17:45 | 49.75226 | -1.77138 | 20558 ft | 375 kts | 350° |
| 2026-05-05 17:45 | 49.77778 | -1.77887 | 20093 ft | 372 kts | 351° |
| 2026-05-05 17:46 | 49.80307 | -1.78631 | 19631 ft | 369 kts | 351° |
| 2026-05-05 17:46 | 49.82821 | -1.79370 | 19161 ft | 366 kts | 351° |
| 2026-05-05 17:46 | 49.85318 | -1.80105 | 18692 ft | 364 kts | 351° |
| 2026-05-05 17:46 | 49.87799 | -1.80841 | 18208 ft | 363 kts | 351° |
| 2026-05-05 17:47 | 49.90268 | -1.81578 | 17677 ft | 361 kts | 350° |
| 2026-05-05 17:47 | 49.92720 | -1.82311 | 17197 ft | 357 kts | 350° |
| 2026-05-05 17:47 | 49.95125 | -1.83030 | 16716 ft | 355 kts | 350° |
| 2026-05-05 17:47 | 49.97572 | -1.83763 | 16234 ft | 353 kts | 350° |
| 2026-05-05 17:48 | 49.99989 | -1.84301 | 15759 ft | 350 kts | 358° |
| 2026-05-05 17:48 | 50.02408 | -1.84176 | 15290 ft | 347 kts | 6° |
| 2026-05-05 17:48 | 50.04808 | -1.83851 | 14818 ft | 345 kts | 6° |
| 2026-05-05 17:48 | 50.07199 | -1.83528 | 14343 ft | 344 kts | 6° |
| 2026-05-05 17:49 | 50.09579 | -1.83206 | 13877 ft | 343 kts | 6° |
| 2026-05-05 17:49 | 50.11921 | -1.82886 | 13374 ft | 342 kts | 6° |
| 2026-05-05 17:49 | 50.14297 | -1.82419 | 12882 ft | 339 kts | 13° |
| 2026-05-05 17:49 | 50.16557 | -1.81450 | 12413 ft | 335 kts | 16° |
| 2026-05-05 17:50 | 50.18791 | -1.80445 | 11918 ft | 333 kts | 16° |
| 2026-05-05 17:50 | 50.21011 | -1.79447 | 11451 ft | 331 kts | 16° |
| 2026-05-05 17:50 | 50.23215 | -1.78458 | 10960 ft | 329 kts | 16° |
| 2026-05-05 17:50 | 50.25398 | -1.77392 | 10469 ft | 328 kts | 19° |
| 2026-05-05 17:51 | 50.27535 | -1.76173 | 10003 ft | 326 kts | 20° |
| 2026-05-05 17:51 | 50.29625 | -1.74912 | 9762 ft | 316 kts | 21° |
| 2026-05-05 17:51 | 50.31641 | -1.73669 | 9501 ft | 307 kts | 21° |
| 2026-05-05 17:51 | 50.33604 | -1.72455 | 9236 ft | 299 kts | 21° |
| 2026-05-05 17:52 | 50.35517 | -1.71276 | 8962 ft | 292 kts | 21° |
| 2026-05-05 17:52 | 50.37361 | -1.70147 | 8700 ft | 285 kts | 21° |
| 2026-05-05 17:52 | 50.39209 | -1.69021 | 8442 ft | 278 kts | 21° |
| 2026-05-05 17:52 | 50.41003 | -1.67929 | 8078 ft | 275 kts | 21° |
| 2026-05-05 17:53 | 50.42784 | -1.66846 | 7696 ft | 273 kts | 21° |
| 2026-05-05 17:53 | 50.44550 | -1.65771 | 7316 ft | 271 kts | 21° |
| 2026-05-05 17:53 | 50.46298 | -1.64705 | 6943 ft | 269 kts | 21° |
| 2026-05-05 17:53 | 50.48034 | -1.63647 | 6574 ft | 266 kts | 21° |
| 2026-05-05 17:54 | 50.49751 | -1.62601 | 6197 ft | 262 kts | 21° |
| 2026-05-05 17:54 | 50.51408 | -1.61591 | 5790 ft | 249 kts | 21° |
| 2026-05-05 17:54 | 50.52983 | -1.60629 | 5412 ft | 237 kts | 20° |
| 2026-05-05 17:54 | 50.54487 | -1.59708 | 5034 ft | 227 kts | 20° |
| 2026-05-05 17:55 | 50.55931 | -1.58824 | 4657 ft | 220 kts | 20° |
| 2026-05-05 17:55 | 50.57364 | -1.57952 | 4261 ft | 221 kts | 20° |
| 2026-05-05 17:55 | 50.58770 | -1.57093 | 4003 ft | 215 kts | 20° |
| 2026-05-05 17:55 | 50.60139 | -1.56253 | 3989 ft | 209 kts | 20° |
| 2026-05-05 17:56 | 50.61514 | -1.55413 | 3970 ft | 210 kts | 20° |
| 2026-05-05 17:56 | 50.62850 | -1.54598 | 3850 ft | 201 kts | 20° |
| 2026-05-05 17:56 | 50.64101 | -1.53831 | 3705 ft | 190 kts | 20° |
| 2026-05-05 17:56 | 50.65315 | -1.53088 | 3585 ft | 189 kts | 21° |
| 2026-05-05 17:57 | 50.66540 | -1.52337 | 3457 ft | 190 kts | 21° |
| 2026-05-05 17:57 | 50.67777 | -1.51575 | 3334 ft | 191 kts | 21° |
| 2026-05-05 17:57 | 50.69017 | -1.50812 | 3209 ft | 191 kts | 20° |
| 2026-05-05 17:57 | 50.70257 | -1.50049 | 3086 ft | 191 kts | 21° |
| 2026-05-05 17:58 | 50.71496 | -1.49286 | 2950 ft | 191 kts | 21° |
| 2026-05-05 17:58 | 50.72733 | -1.48525 | 2821 ft | 190 kts | 21° |
| 2026-05-05 17:58 | 50.73965 | -1.47766 | 2696 ft | 190 kts | 20° |
| 2026-05-05 17:58 | 50.75200 | -1.47003 | 2604 ft | 191 kts | 20° |
| 2026-05-05 17:59 | 50.76431 | -1.46244 | 2519 ft | 189 kts | 21° |
| 2026-05-05 17:59 | 50.77658 | -1.45485 | 2501 ft | 190 kts | 20° |
| 2026-05-05 17:59 | 50.78889 | -1.44722 | 2506 ft | 189 kts | 21° |
| 2026-05-05 17:59 | 50.80118 | -1.43960 | 2503 ft | 189 kts | 20° |
| 2026-05-05 18:00 | 50.81339 | -1.43252 | 2504 ft | 186 kts | 19° |
| 2026-05-05 18:00 | 50.82557 | -1.42580 | 2512 ft | 183 kts | 18° |
| 2026-05-05 18:00 | 50.83748 | -1.41930 | 2268 ft | 179 kts | 18° |
| 2026-05-05 18:00 | 50.84884 | -1.41308 | 2006 ft | 165 kts | 19° |
| 2026-05-05 18:01 | 50.85918 | -1.40737 | 1795 ft | 151 kts | 19° |
| 2026-05-05 18:01 | 50.86863 | -1.40212 | 1622 ft | 138 kts | 20° |
| 2026-05-05 18:01 | 50.87749 | -1.39720 | 1462 ft | 134 kts | 19° |
| 2026-05-05 18:01 | 50.88625 | -1.39237 | 1309 ft | 133 kts | 19° |
| 2026-05-05 18:02 | 50.89502 | -1.38753 | 1145 ft | 134 kts | 19° |
| 2026-05-05 18:02 | 50.90378 | -1.38267 | 995 ft | 133 kts | 18° |
| 2026-05-05 18:02 | 50.91251 | -1.37777 | 839 ft | 133 kts | 18° |
| 2026-05-05 18:02 | 50.92125 | -1.37296 | 593 ft | 132 kts | 18° |
| 2026-05-05 18:03 | 50.92998 | -1.36819 | 377 ft | 133 kts | 21° |
| 2026-05-05 18:03 | 50.93877 | -1.36326 | 152 ft | 135 kts | 20° |
| 2026-05-05 18:03 | 50.94740 | -1.35837 | 48 ft | 123 kts | 18° |
| 2026-05-05 18:03 | 50.95408 | -1.35466 | 39 ft | 65 kts | 19° |
| 2026-05-05 18:04 | 50.95614 | -1.35354 | 45 ft | 18 kts | 18° |
| 2026-05-05 18:04 | 50.95717 | -1.35298 | 42 ft | 15 kts | 21° |
| 2026-05-05 18:04 | 50.95822 | -1.35248 | 43 ft | 17 kts | 357° |
| 2026-05-05 18:04 | 50.95879 | -1.35227 | 42 ft | 6 kts | 111° |
| 2026-05-05 18:05 | 50.95841 | -1.35219 | 42 ft | 5 kts | 211° |
| 2026-05-05 18:05 | 50.95811 | -1.35241 | 43 ft | 4 kts | 202° |
| 2026-05-05 18:05 | 50.95752 | -1.35277 | 43 ft | 17 kts | 197° |
| 2026-05-05 18:05 | 50.95598 | -1.35362 | 42 ft | 28 kts | 200° |
| 2026-05-05 18:06 | 50.95408 | -1.35471 | 39 ft | 30 kts | 199° |
| 2026-05-05 18:06 | 50.95269 | -1.35548 | 40 ft | 32 kts | 199° |
| 2026-05-05 18:06 | 50.95039 | -1.35679 | 40 ft | 14 kts | 206° |
| 2026-05-05 18:06 | 50.95034 | -1.35767 | 40 ft | 7 kts | 279° |
| 2026-05-05 18:07 | 50.95045 | -1.35841 | 39 ft | 7 kts | 285° |
| 2026-05-05 18:07 | 50.95053 | -1.35905 | 39 ft | 6 kts | 277° |
| 2026-05-05 18:07 | 50.95064 | -1.35960 | 39 ft | 5 kts | 289° |
| 2026-05-05 18:07 | 50.95072 | -1.35996 | 39 ft | 2 kts | 289° |
| 2026-05-05 18:08 | 50.95073 | -1.36002 | 39 ft | 0 kts | 289° |